This is the latest recevied weather packets stored in our database for station/object DH1NAI-6. If no packets are shown the sender has not sent any weather packets the latest 10 day(s).
| Time | Temp. | Humidity | Pressure | Rain* | Wind** | Luminosity | Snow |
|---|---|---|---|---|---|---|---|
| 1787661079 | 18.89° C | 62% | 1012.8 hPa | 0 mm | - | 38 W/m² | - |
| 1787660470 | 19.44° C | 63% | 1012.8 hPa | 0 mm | - | 48 W/m² | - |
| 1787659863 | 19.44° C | 63% | 1012.8 hPa | 0 mm | - | 61 W/m² | - |
| 1787659254 | 19.44° C | 64% | 1012.6 hPa | 0 mm | - | 71 W/m² | - |
| 1787658647 | 19.44° C | 64% | 1012.6 hPa | 0 mm | - | 85 W/m² | - |
| 1787658032 | 19.44° C | 64% | 1012.5 hPa | 0 mm | - | 100 W/m² | - |
| 1787657431 | 18.89° C | 65% | 1012.7 hPa | 0 mm | - | 84 W/m² | - |
| 1787656822 | 18.89° C | 63% | 1012.7 hPa | 0 mm | - | 71 W/m² | - |
| 1787656198 | 18.89° C | 65% | 1012.6 hPa | 0 mm | - | 86 W/m² | - |
| 1787655574 | 18.89° C | 64% | 1012.7 hPa | 0 mm | - | 71 W/m² | - |
| 1787654966 | 18.89° C | 67% | 1012.8 hPa | 0 mm | - | 78 W/m² | - |
| 1787654359 | 18.89° C | 67% | 1012.7 hPa | 0 mm | - | 75 W/m² | - |
| 1787653761 | 18.33° C | 68% | 1012.8 hPa | 0 mm | - | 75 W/m² | - |
| 1787653143 | 18.33° C | 69% | 1012.4 hPa | 0 mm | - | 73 W/m² | - |
| 1787652534 | 17.78° C | 69% | 1012.4 hPa | 0 mm | - | 70 W/m² | - |
| 1787651927 | 17.78° C | 66% | 1012.4 hPa | 0 mm | - | 72 W/m² | - |
| 1787651312 | 17.78° C | 69% | 1012.4 hPa | 0 mm | - | 86 W/m² | - |
| 1787650711 | 17.78° C | 67% | 1012.2 hPa | 0 mm | - | 75 W/m² | - |
| 1787650102 | 18.33° C | 66% | 1012.3 hPa | 0 mm | - | 92 W/m² | - |
| 1787649478 | 17.78° C | 66% | 1012.1 hPa | 0 mm | - | 105 W/m² | - |
| 1787648854 | 17.22° C | 69% | 1012.1 hPa | 0 mm | - | 87 W/m² | - |
| 1787648246 | 16.67° C | 69% | 1012.2 hPa | 0 mm | - | 68 W/m² | - |
| 1787647622 | 16.67° C | 71% | 1012.2 hPa | 0 mm | - | 70 W/m² | - |
| 1787646998 | 16.67° C | 71% | 1012.4 hPa | 0 mm | - | 70 W/m² | - |
| 1787646390 | 16.11° C | 72% | 1012.1 hPa | 0 mm | - | 64 W/m² | - |
* Rain latest hour (hover to see other rain measurements)
** Current wind speed in m/s (hover to see current wind gust speed)